Time;durP1;ratioP1;P1;durP2;ratioP2;P2;SDS_P1;SDS_P2;PMS_P1;PMS_P2;Temp;Humidity;BMP_temperature;BMP_pressure;BME280_temperature;BME280_humidity;BME280_pressure;Samples;Min_cycle;Max_cycle;Signal;HPM_P1;HPM_P2
2024/02/19 00:00:39;;;;;;;9.10;1.67;;;;;;;6.91;100.00;102281.63;5023679;28;20189;-73
2024/02/19 00:03:05;;;;;;;13.80;2.17;;;;;;;6.81;100.00;102246.09;5007965;28;20683;-73
2024/02/19 00:05:30;;;;;;;12.93;2.07;;;;;;;7.38;100.00;102364.53;5005182;28;20208;-73
2024/02/19 00:07:59;;;;;;;11.53;2.10;;;;;;;7.07;100.00;102345.13;5025738;28;21038;-73
2024/02/19 00:10:25;;;;;;;11.30;1.90;;;;;;;7.59;100.00;102423.13;5020199;28;20220;-73
2024/02/19 00:12:51;;;;;;;12.37;1.60;;;;;;;6.82;100.00;102289.63;5002028;28;20564;-74
2024/02/19 00:15:16;;;;;;;12.83;2.03;;;;;;;6.68;100.00;102275.72;5021505;28;20192;-73
2024/02/19 00:17:42;;;;;;;9.50;2.00;;;;;;;6.76;100.00;102265.19;5010381;28;20466;-73
2024/02/19 00:20:08;;;;;;;9.10;1.70;;;;;;;7.44;100.00;102379.13;5025651;28;20305;-74
2024/02/19 00:22:34;;;;;;;8.90;1.33;;;;;;;7.18;100.00;102347.66;5009704;28;20180;-73
2024/02/19 00:24:59;;;;;;;8.73;1.33;;;;;;;7.68;100.00;102432.94;5015630;28;20447;-73
2024/02/19 00:27:25;;;;;;;14.60;2.10;;;;;;;6.75;100.00;102305.34;5022764;28;20673;-73
2024/02/19 00:29:51;;;;;;;9.07;2.27;;;;;;;6.60;100.00;102314.72;5008002;28;20277;-73
2024/02/19 00:32:16;;;;;;;11.90;2.60;;;;;;;6.86;100.00;102333.72;5024012;28;20631;-73
2024/02/19 00:34:45;;;;;;;11.20;2.17;;;;;;;6.87;100.00;102336.22;5003588;28;20188;-73
2024/02/19 00:37:11;;;;;;;16.37;3.03;;;;;;;7.20;100.00;102388.41;5007819;28;20620;-73
2024/02/19 00:39:37;;;;;;;13.90;2.00;;;;;;;7.26;100.00;102392.31;5007568;28;20432;-73
2024/02/19 00:42:03;;;;;;;15.23;3.10;;;;;;;6.31;100.00;102251.50;5022398;28;20189;-73
2024/02/19 00:44:28;;;;;;;14.07;1.80;;;;;;;6.79;100.00;102339.56;5021347;28;20470;-73
2024/02/19 00:46:54;;;;;;;10.07;1.87;;;;;;;6.71;100.00;102331.44;5004562;28;20438;-73
2024/02/19 00:49:19;;;;;;;9.73;2.20;;;;;;;7.42;100.00;102437.16;5003301;28;20208;-73
2024/02/19 00:51:45;;;;;;;15.00;2.23;;;;;;;7.34;100.00;102437.84;5016679;28;20212;-73
2024/02/19 00:54:11;;;;;;;9.13;1.37;;;;;;;6.68;100.00;102312.19;5022940;28;20196;-73
2024/02/19 00:56:37;;;;;;;11.03;2.03;;;;;;;7.15;100.00;102409.31;5019465;28;20197;-73
2024/02/19 00:59:03;;;;;;;8.63;1.20;;;;;;;7.37;100.00;102405.53;5003303;28;21180;-73
2024/02/19 01:01:29;;;;;;;9.97;2.03;;;;;;;6.79;100.00;102366.25;5019876;28;22758;-73
2024/02/19 01:03:54;;;;;;;10.17;1.80;;;;;;;7.44;100.00;102508.13;5019421;28;20446;-73
2024/02/19 01:06:19;;;;;;;13.97;2.00;;;;;;;7.08;100.00;102434.84;5018513;28;20200;-73
2024/02/19 01:08:45;;;;;;;8.83;1.50;;;;;;;7.63;100.00;102485.94;5021255;28;20235;-73
2024/02/19 01:11:11;;;;;;;10.77;2.57;;;;;;;6.96;100.00;102370.06;5004680;28;20204;-73
2024/02/19 01:13:36;;;;;;;16.00;2.20;;;;;;;7.32;100.00;102477.19;5018426;28;20188;-74
2024/02/19 01:16:01;;;;;;;17.63;2.00;;;;;;;6.82;100.00;102378.47;5018014;28;20180;-73
2024/02/19 01:18:27;;;;;;;10.07;1.40;;;;;;;7.39;100.00;102480.16;5021659;28;20216;-73
2024/02/19 01:20:54;;;;;;;13.53;2.27;;;;;;;7.37;100.00;102477.59;5020843;28;20184;-73
2024/02/19 01:23:20;;;;;;;14.00;1.90;;;;;;;6.75;100.00;102396.84;5002151;28;20216;-73
2024/02/19 01:25:45;;;;;;;8.53;1.80;;;;;;;7.17;100.00;102473.19;5005209;28;20848;-73
2024/02/19 01:28:10;;;;;;;13.77;2.53;;;;;;;7.21;100.00;102464.78;5008351;28;20200;-73
2024/02/19 01:30:37;;;;;;;11.10;2.27;;;;;;;6.38;100.00;102353.91;5007694;28;20439;-73
2024/02/19 01:33:03;;;;;;;12.43;2.57;;;;;;;7.34;100.00;102466.38;5003624;28;20704;-73
2024/02/19 01:35:29;;;;;;;12.17;2.27;;;;;;;7.34;100.00;102496.56;5003345;28;20443;-73
2024/02/19 01:37:55;;;;;;;15.80;3.27;;;;;;;6.50;100.00;102355.50;5018248;28;20960;-73
2024/02/19 01:40:21;;;;;;;14.53;2.53;;;;;;;7.52;100.00;102520.78;5018288;28;20191;-73
2024/02/19 01:42:46;;;;;;;11.03;1.97;;;;;;;6.99;100.00;102433.84;5023655;28;20438;-74
2024/02/19 01:45:28;;;;;;;12.90;2.03;;;;;;;7.34;100.00;102496.56;5003336;28;20223;-73
2024/02/19 01:47:58;;;;;;;11.07;1.60;;;;;;;7.48;100.00;102506.00;5016058;28;20204;-73
2024/02/19 01:50:26;;;;;;;16.43;2.23;;;;;;;7.53;100.00;102532.31;4999838;28;20945;-73
2024/02/19 01:52:54;;;;;;;11.10;1.97;;;;;;;7.15;100.00;102486.69;5023681;28;20458;-73
2024/02/19 01:55:20;;;;;;;11.93;1.90;;;;;;;6.98;100.00;102421.47;5003152;28;20450;-74
2024/02/19 01:57:47;;;;;;;10.30;1.70;;;;;;;7.17;100.00;102490.06;5019577;28;20494;-73
2024/02/19 02:00:15;;;;;;;12.50;1.93;;;;;;;6.43;100.00;102373.03;5020220;28;20446;-73
2024/02/19 02:02:42;;;;;;;14.63;2.07;;;;;;;6.41;100.00;102369.63;5001999;28;20465;-73
2024/02/19 02:05:07;;;;;;;10.40;1.90;;;;;;;6.33;100.00;102345.47;5018286;28;20497;-73
2024/02/19 02:07:33;;;;;;;10.10;1.60;;;;;;;6.46;100.00;102363.91;5001158;28;21311;-73
2024/02/19 02:10:04;;;;;;;11.33;1.90;;;;;;;7.52;100.00;102538.63;5020949;28;20592;-74
2024/02/19 02:12:31;;;;;;;6.93;1.80;;;;;;;7.49;100.00;102526.38;5005878;28;20205;-73
2024/02/19 02:14:56;;;;;;;9.17;1.40;;;;;;;7.24;100.00;102463.69;5003850;28;20447;-73
2024/02/19 02:17:21;;;;;;;11.97;1.80;;;;;;;6.96;100.00;102407.44;5019051;28;20441;-73
2024/02/19 02:19:47;;;;;;;11.77;1.27;;;;;;;6.44;100.00;102332.06;5017289;28;20191;-73
2024/02/19 02:22:13;;;;;;;8.60;1.33;;;;;;;6.85;100.00;102412.88;5016338;28;20302;-73
2024/02/19 02:24:39;;;;;;;10.43;1.40;;;;;;;7.01;100.00;102468.41;5007170;28;20298;-73
2024/02/19 02:27:04;;;;;;;7.63;1.30;;;;;;;7.01;100.00;102458.56;5020714;28;20485;-73
2024/02/19 02:29:30;;;;;;;10.90;1.93;;;;;;;6.36;100.00;102377.19;5002309;28;20271;-73
2024/02/19 02:31:55;;;;;;;8.93;1.97;;;;;;;7.25;100.00;102522.25;5018870;28;20693;-73
2024/02/19 02:34:22;;;;;;;10.27;1.97;;;;;;;7.11;100.00;102517.28;5018886;28;20184;-73
2024/02/19 02:36:51;;;;;;;13.40;2.50;;;;;;;7.28;100.00;102528.31;5003303;28;20720;-73
2024/02/19 02:39:16;;;;;;;11.57;2.20;;;;;;;7.51;100.00;102566.31;5019119;28;22128;-73
2024/02/19 02:41:42;;;;;;;15.83;3.00;;;;;;;7.54;100.00;102593.56;5021546;28;20444;-73
2024/02/19 02:44:08;;;;;;;11.13;2.10;;;;;;;7.44;100.00;102539.31;5005814;28;20299;-73
2024/02/19 02:46:33;;;;;;;21.47;2.80;;;;;;;6.98;100.00;102479.34;5016689;28;20188;-73
2024/02/19 02:48:59;;;;;;;23.13;3.70;;;;;;;6.67;100.00;102436.69;5020747;28;21006;-73
2024/02/19 02:51:25;;;;;;;15.30;3.50;;;;;;;7.32;100.00;102529.72;5018111;28;20676;-73
2024/02/19 02:53:50;;;;;;;20.53;4.07;;;;;;;7.60;100.00;102554.81;5002141;28;20726;-73
2024/02/19 02:56:18;;;;;;;12.97;2.20;;;;;;;6.71;100.00;102439.91;5004960;28;20520;-73
2024/02/19 02:58:43;;;;;;;12.20;2.40;;;;;;;7.14;100.00;102522.34;4999190;28;20232;-73
2024/02/19 03:01:14;;;;;;;14.70;2.43;;;;;;;6.56;100.00;102410.94;5022308;28;20465;-73
2024/02/19 03:03:39;;;;;;;12.27;2.27;;;;;;;7.02;100.00;102496.75;5018533;28;20608;-73
2024/02/19 03:06:05;;;;;;;13.87;2.20;;;;;;;7.60;100.00;102594.88;5009682;28;20439;-73
2024/02/19 03:08:33;;;;;;;15.57;3.10;;;;;;;7.00;100.00;102509.38;5020360;28;20296;-73
2024/02/19 03:10:59;;;;;;;11.53;2.33;;;;;;;7.57;100.00;102603.16;5019703;28;20618;-73
2024/02/19 03:13:25;;;;;;;12.17;2.03;;;;;;;6.77;100.00;102471.41;5004715;28;20527;-73
2024/02/19 03:15:50;;;;;;;12.93;2.10;;;;;;;6.76;100.00;102489.19;5014612;28;20526;-73
2024/02/19 03:18:16;;;;;;;12.33;2.07;;;;;;;6.54;100.00;102428.06;5009732;28;20304;-73
2024/02/19 03:20:41;;;;;;;15.37;2.40;;;;;;;6.98;100.00;102528.19;5021321;28;20211;-73
2024/02/19 03:23:07;;;;;;;16.23;3.10;;;;;;;7.06;100.00;102508.00;5013850;28;20192;-73
2024/02/19 03:25:32;;;;;;;8.67;1.57;;;;;;;6.75;100.00;102478.69;5021435;28;20197;-73
2024/02/19 03:27:58;;;;;;;14.57;2.60;;;;;;;7.42;100.00;102576.81;5021003;28;20207;-73
2024/02/19 03:30:23;;;;;;;7.83;1.80;;;;;;;7.66;100.00;102608.50;5023443;28;20199;-73
2024/02/19 03:32:49;;;;;;;9.27;1.50;;;;;;;7.24;100.00;102539.25;5021976;28;20620;-73
2024/02/19 03:35:14;;;;;;;13.07;2.10;;;;;;;6.57;100.00;102441.97;5021312;28;20679;-73
2024/02/19 03:37:40;;;;;;;15.20;2.00;;;;;;;6.97;100.00;102483.84;5022929;28;20989;-73
2024/02/19 03:40:07;;;;;;;11.50;2.00;;;;;;;7.21;100.00;102536.84;5025805;28;20199;-73
2024/02/19 03:42:33;;;;;;;10.50;1.53;;;;;;;6.71;100.00;102467.44;5018911;28;20176;-73
2024/02/19 03:44:59;;;;;;;14.10;1.90;;;;;;;7.61;100.00;102580.56;5008862;28;20815;-73
2024/02/19 03:47:25;;;;;;;10.67;2.10;;;;;;;6.83;100.00;102464.66;5020904;28;20444;-73
2024/02/19 03:49:50;;;;;;;15.60;1.90;;;;;;;7.62;100.00;102555.53;5005431;28;20438;-73
2024/02/19 03:52:17;;;;;;;16.20;2.50;;;;;;;7.46;100.00;102537.34;5020801;28;20204;-74
2024/02/19 03:54:42;;;;;;;16.33;2.50;;;;;;;7.11;100.00;102485.25;5021760;28;20197;-73
2024/02/19 03:57:09;;;;;;;8.97;1.30;;;;;;;7.02;100.00;102435.38;5019596;28;20923;-73
2024/02/19 03:59:34;;;;;;;10.93;1.40;;;;;;;7.68;100.00;102528.25;5004451;28;20180;-73
2024/02/19 04:02:00;;;;;;;13.10;2.20;;;;;;;7.23;100.00;102461.97;5011288;28;20932;-73
2024/02/19 04:04:26;;;;;;;9.50;1.40;;;;;;;7.36;100.00;102485.75;5022183;28;20196;-73
2024/02/19 04:06:51;;;;;;;8.10;1.30;;;;;;;7.11;100.00;102437.22;5009810;28;20481;-73
2024/02/19 04:09:17;;;;;;;10.13;1.53;;;;;;;7.80;100.00;102545.00;5009093;28;20566;-73
2024/02/19 04:11:42;;;;;;;12.90;1.50;;;;;;;7.56;100.00;102489.31;5021676;28;20227;-73
2024/02/19 04:14:08;;;;;;;11.97;1.80;;;;;;;7.62;100.00;102513.63;5005138;28;20650;-73
2024/02/19 04:16:33;;;;;;;13.57;1.30;;;;;;;7.18;100.00;102419.72;5022911;28;20192;-73
2024/02/19 04:18:58;;;;;;;11.40;1.40;;;;;;;7.31;100.00;102434.59;5019291;28;20208;-73
2024/02/19 04:21:24;;;;;;;8.93;1.47;;;;;;;6.98;100.00;102392.13;5003548;28;20173;-73
2024/02/19 04:23:49;;;;;;;8.77;1.63;;;;;;;7.28;100.00;102430.38;5008132;28;20181;-73
2024/02/19 04:26:15;;;;;;;7.20;1.20;;;;;;;7.81;100.00;102506.59;5022270;28;20267;-73
2024/02/19 04:28:40;;;;;;;8.13;1.23;;;;;;;7.31;100.00;102435.44;5018447;28;20208;-73
2024/02/19 04:31:06;;;;;;;7.23;1.20;;;;;;;7.53;100.00;102469.06;5020333;28;20213;-73
2024/02/19 04:33:31;;;;;;;7.63;1.30;;;;;;;7.98;100.00;102569.19;5007421;28;20578;-73
2024/02/19 04:35:56;;;;;;;10.20;1.80;;;;;;;6.76;100.00;102368.34;5021902;28;20187;-73
2024/02/19 04:38:22;;;;;;;8.20;1.47;;;;;;;8.08;100.00;102560.22;5021722;28;20646;-73
2024/02/19 04:40:47;;;;;;;12.07;1.70;;;;;;;7.93;100.00;102574.97;5005631;28;20216;-73
2024/02/19 04:43:13;;;;;;;10.90;1.70;;;;;;;7.29;100.00;102448.09;5002968;28;20191;-72
2024/02/19 04:45:38;;;;;;;10.07;1.80;;;;;;;7.61;100.00;102503.09;5008828;28;20668;-73
2024/02/19 04:48:04;;;;;;;14.00;2.80;;;;;;;8.01;100.00;102555.56;5023635;28;20212;-72
2024/02/19 04:50:29;;;;;;;9.53;1.87;;;;;;;7.90;100.00;102546.72;5024452;28;20179;-72
2024/02/19 04:52:55;;;;;;;8.33;1.20;;;;;;;7.22;100.00;102468.31;5002410;28;20602;-73
2024/02/19 04:55:21;;;;;;;11.27;1.80;;;;;;;7.16;100.00;102450.19;5007052;28;20845;-73
2024/02/19 04:57:46;;;;;;;9.90;1.90;;;;;;;7.81;100.00;102557.38;5020943;28;20454;-73
2024/02/19 05:00:12;;;;;;;9.20;2.00;;;;;;;7.05;100.00;102444.94;5006687;28;20736;-73
2024/02/19 05:02:38;;;;;;;9.50;2.13;;;;;;;7.16;100.00;102451.00;5020138;28;20188;-73
2024/02/19 05:05:03;;;;;;;16.00;1.80;;;;;;;6.32;100.00;102327.81;5023905;28;20220;-72
2024/02/19 05:07:30;;;;;;;15.83;1.80;;;;;;;6.81;100.00;102415.97;5018315;28;20693;-73
2024/02/19 05:09:55;;;;;;;16.53;2.80;;;;;;;7.10;100.00;102478.25;5020716;28;20268;-74
2024/02/19 05:12:21;;;;;;;19.83;2.97;;;;;;;7.34;100.00;102509.06;5019277;28;20467;-73
2024/02/19 05:14:46;;;;;;;12.87;2.83;;;;;;;7.43;100.00;102521.59;5005969;28;20675;-73
2024/02/19 05:19:37;;;;;;;12.35;2.53;;;;;;;5.12;100.00;102161.53;5042997;22;20739;-72
2024/02/19 05:22:02;;;;;;;12.60;2.60;;;;;;;6.57;100.00;102401.97;5044186;28;20208;-73
2024/02/19 05:24:28;;;;;;;19.10;3.03;;;;;;;5.62;100.00;102230.88;5044508;28;20184;-73
2024/02/19 05:26:54;;;;;;;12.57;2.87;;;;;;;4.20;100.00;101999.25;5058321;28;20752;-73
2024/02/19 05:29:19;;;;;;;12.83;2.20;;;;;;;4.31;100.00;102057.63;5043360;28;20199;-73
2024/02/19 05:31:45;;;;;;;14.70;2.57;;;;;;;6.62;100.00;102414.06;5044164;28;20734;-73
2024/02/19 05:34:11;;;;;;;13.27;2.47;;;;;;;6.29;100.00;102387.53;5043228;28;20431;-73
2024/02/19 05:36:36;;;;;;;16.13;2.53;;;;;;;6.54;100.00;102412.91;5048801;28;20179;-72
2024/02/19 05:39:02;;;;;;;16.53;2.47;;;;;;;4.38;100.00;102076.53;5043229;28;20203;-72
2024/02/19 05:41:28;;;;;;;15.30;2.33;;;;;;;6.65;100.00;102440.44;5046582;28;20555;-72
2024/02/19 05:43:53;;;;;;;19.57;3.10;;;;;;;7.68;100.00;102598.53;5050403;28;20422;-73
2024/02/19 05:46:20;;;;;;;13.47;2.67;;;;;;;7.36;100.00;102548.00;5043756;28;20587;-72
2024/02/19 05:48:45;;;;;;;17.67;3.10;;;;;;;7.13;100.00;102495.81;5063468;28;20212;-73
2024/02/19 05:51:12;;;;;;;20.37;3.13;;;;;;;7.02;100.00;102483.41;5046095;28;20465;-73
2024/02/19 05:53:37;;;;;;;14.67;3.23;;;;;;;7.47;100.00;102558.56;5045315;28;20211;-73
2024/02/19 05:56:04;;;;;;;17.10;3.27;;;;;;;7.68;100.00;102600.38;5042252;28;20482;-72
2024/02/19 05:58:32;;;;;;;17.03;2.97;;;;;;;7.22;100.00;102508.34;5047538;28;20207;-72
2024/02/19 06:00:57;;;;;;;21.23;3.57;;;;;;;7.35;100.00;102551.66;5042779;28;20462;-72
2024/02/19 06:03:25;;;;;;;16.77;2.77;;;;;;;6.69;100.00;102456.06;5046607;28;20465;-73
2024/02/19 06:05:51;;;;;;;15.87;3.50;;;;;;;7.63;100.00;102591.91;5047760;28;20179;-73
2024/02/19 06:08:16;;;;;;;19.60;3.17;;;;;;;6.34;100.00;102401.31;5044131;28;20501;-73
2024/02/19 06:10:45;;;;;;;13.63;2.70;;;;;;;7.10;100.00;102533.44;5046223;28;20439;-73
2024/02/19 06:13:11;;;;;;;15.50;2.70;;;;;;;7.52;100.00;102592.03;5045574;28;20266;-72
2024/02/19 06:15:36;;;;;;;15.17;2.67;;;;;;;7.39;100.00;102576.25;5044638;28;20528;-72
2024/02/19 06:18:02;;;;;;;26.73;3.20;;;;;;;6.83;100.00;102484.19;5041422;28;20524;-72
2024/02/19 06:20:27;;;;;;;22.77;3.87;;;;;;;6.72;100.00;102492.28;5043111;28;20187;-72
2024/02/19 06:22:53;;;;;;;18.20;3.00;;;;;;;6.65;100.00;102456.44;5046810;28;20188;-72
2024/02/19 06:25:18;;;;;;;25.33;4.70;;;;;;;7.41;100.00;102580.47;5044471;28;20191;-72
2024/02/19 06:27:43;;;;;;;20.23;2.77;;;;;;;7.12;100.00;102551.00;5044970;28;20911;-72
2024/02/19 06:30:09;;;;;;;20.60;4.00;;;;;;;6.60;100.00;102466.69;5046665;28;20190;-73
2024/02/19 06:32:35;;;;;;;19.30;3.90;;;;;;;6.93;100.00;102514.41;5041701;28;20214;-73
2024/02/19 06:35:00;;;;;;;21.03;3.83;;;;;;;6.84;100.00;102477.03;5049612;28;20648;-73
2024/02/19 06:37:26;;;;;;;23.73;3.90;;;;;;;7.57;100.00;102624.50;5047181;28;20428;-73
2024/02/19 06:39:51;;;;;;;17.73;3.17;;;;;;;6.94;100.00;102531.25;5047328;28;20192;-73
2024/02/19 06:42:19;;;;;;;18.13;3.67;;;;;;;6.69;100.00;102468.56;5047329;28;20183;-73
2024/02/19 06:44:44;;;;;;;24.63;4.37;;;;;;;7.08;100.00;102554.06;5045141;28;20267;-73
2024/02/19 06:47:11;;;;;;;20.23;3.87;;;;;;;7.57;100.00;102633.38;5039822;28;20509;-72
2024/02/19 06:49:37;;;;;;;26.60;4.50;;;;;;;6.92;100.00;102530.56;5050040;28;20241;-73
2024/02/19 06:52:02;;;;;;;17.83;3.73;;;;;;;6.91;100.00;102542.19;5046915;28;20473;-72
2024/02/19 06:54:28;;;;;;;21.40;4.27;;;;;;;6.57;100.00;102470.47;5065588;28;20656;-73
2024/02/19 06:56:53;;;;;;;19.63;4.13;;;;;;;6.93;100.00;102524.25;5051571;28;20184;-72
2024/02/19 06:59:19;;;;;;;20.27;4.90;;;;;;;6.71;100.00;102528.78;5048649;28;20269;-72
2024/02/19 07:01:44;;;;;;;21.83;3.67;;;;;;;6.80;100.00;102540.47;5047475;28;20644;-72
2024/02/19 07:04:11;;;;;;;14.97;3.20;;;;;;;7.51;100.00;102623.22;5060347;28;20481;-72
2024/02/19 07:06:37;;;;;;;22.03;3.77;;;;;;;6.85;100.00;102518.72;5048537;28;20192;-73
2024/02/19 07:09:02;;;;;;;18.73;3.60;;;;;;;6.77;100.00;102495.41;5053207;28;20513;-72
2024/02/19 07:11:28;;;;;;;26.87;4.83;;;;;;;7.09;100.00;102537.06;5049730;28;20464;-72
2024/02/19 07:13:55;;;;;;;19.90;3.80;;;;;;;7.01;100.00;102508.41;5050494;28;20613;-72
2024/02/19 07:16:21;;;;;;;22.03;3.43;;;;;;;7.30;100.00;102561.88;5044537;28;20878;-72
2024/02/19 07:18:47;;;;;;;17.47;4.17;;;;;;;7.45;100.00;102557.03;5048168;28;20903;-73
2024/02/19 07:21:13;;;;;;;23.73;4.60;;;;;;;6.96;100.00;102492.78;5048223;28;20524;-72
2024/02/19 07:23:39;;;;;;;23.70;4.67;;;;;;;7.10;100.00;102515.59;5048374;28;20458;-73
2024/02/19 07:26:04;;;;;;;21.43;5.10;;;;;;;6.89;100.00;102472.16;5047123;28;20180;-73
2024/02/19 07:28:29;;;;;;;29.33;5.57;;;;;;;7.89;100.00;102635.84;5050408;28;20199;-73
2024/02/19 07:30:55;;;;;;;20.33;3.90;;;;;;;7.75;100.00;102614.00;5050569;28;20217;-72
2024/02/19 07:33:21;;;;;;;24.40;4.63;;;;;;;7.72;100.00;102591.09;5047144;28;20202;-72
2024/02/19 07:35:46;;;;;;;22.33;3.97;;;;;;;7.04;100.00;102492.13;5052979;28;20176;-72
2024/02/19 07:38:11;;;;;;;17.40;4.37;;;;;;;7.00;100.00;102462.22;5051220;28;20199;-72
2024/02/19 07:40:37;;;;;;;18.60;4.40;;;;;;;7.80;100.00;102593.09;5047684;28;20275;-72
2024/02/19 07:43:03;;;;;;;23.83;4.57;;;;;;;7.62;100.00;102577.72;5049118;28;20258;-72
2024/02/19 07:45:28;;;;;;;19.20;4.20;;;;;;;7.23;100.00;102502.88;5047454;28;20187;-73
2024/02/19 07:47:53;;;;;;;19.73;4.20;;;;;;;7.30;100.00;102515.69;5041958;28;20630;-72
2024/02/19 07:50:19;;;;;;;24.70;4.27;;;;;;;7.80;100.00;102579.72;5047155;28;20621;-72
2024/02/19 07:52:45;;;;;;;23.23;6.30;;;;;;;7.35;100.00;102526.78;5065520;28;20207;-72
2024/02/19 07:55:10;;;;;;;21.47;5.27;;;;;;;7.69;100.00;102586.91;5041074;28;20199;-72
2024/02/19 07:57:36;;;;;;;19.80;4.63;;;;;;;7.47;100.00;102545.22;5059197;28;20208;-73
2024/02/19 08:00:01;;;;;;;20.90;4.57;;;;;;;7.30;100.00;102505.00;5049608;28;20190;-72
2024/02/19 08:02:27;;;;;;;23.10;6.30;;;;;;;7.34;100.00;102498.41;5049066;28;20255;-72
2024/02/19 08:04:52;;;;;;;20.27;5.30;;;;;;;7.51;100.00;102536.94;5044943;28;20183;-72
2024/02/19 08:07:18;;;;;;;21.87;5.07;;;;;;;7.75;100.00;102572.13;5047968;28;20178;-72
2024/02/19 08:09:44;;;;;;;19.00;5.43;;;;;;;8.19;100.00;102663.50;5046647;28;20564;-72
2024/02/19 08:12:09;;;;;;;20.33;5.60;;;;;;;7.29;100.00;102521.97;5049035;28;20250;-73
2024/02/19 08:14:35;;;;;;;19.20;6.00;;;;;;;7.39;100.00;102528.19;5054390;28;20199;-72
2024/02/19 08:17:01;;;;;;;24.33;7.20;;;;;;;8.17;100.00;102665.44;5048020;28;20194;-72
2024/02/19 08:19:26;;;;;;;24.37;6.97;;;;;;;7.73;100.00;102587.47;5043828;28;20219;-72
2024/02/19 08:21:53;;;;;;;24.00;5.87;;;;;;;7.21;100.00;102512.84;5047592;28;20442;-72
2024/02/19 08:24:18;;;;;;;28.43;6.33;;;;;;;7.96;100.00;102616.63;5045254;28;20253;-72
2024/02/19 08:26:44;;;;;;;24.97;6.33;;;;;;;7.37;100.00;102514.97;5046102;28;20438;-72
2024/02/19 08:29:10;;;;;;;26.87;6.27;;;;;;;8.15;100.00;102652.22;5045122;28;20195;-72
2024/02/19 08:31:36;;;;;;;21.43;5.63;;;;;;;8.01;100.00;102623.19;5045434;28;20203;-73
2024/02/19 08:34:01;;;;;;;27.40;6.63;;;;;;;8.02;100.00;102629.41;5044144;28;20444;-72
2024/02/19 08:36:26;;;;;;;25.60;5.47;;;;;;;8.09;100.00;102634.06;5046808;28;20176;-72
2024/02/19 08:38:55;;;;;;;26.97;5.50;;;;;;;8.31;100.00;102650.84;5045720;28;20238;-72
2024/02/19 08:41:21;;;;;;;29.20;7.00;;;;;;;8.31;100.00;102646.34;5048991;28;20172;-72
2024/02/19 08:43:47;;;;;;;20.30;5.27;;;;;;;7.52;100.00;102519.94;5046847;28;20449;-73
2024/02/19 08:46:13;;;;;;;21.37;5.50;;;;;;;7.81;100.00;102544.00;5043310;28;21131;-73
2024/02/19 08:48:39;;;;;;;24.67;6.20;;;;;;;8.00;100.00;102564.56;5044870;28;20204;-73
2024/02/19 08:51:04;;;;;;;26.13;5.80;;;;;;;8.40;100.00;102628.63;5047484;28;20470;-73
2024/02/19 08:53:30;;;;;;;21.90;5.20;;;;;;;8.40;100.00;102601.06;5043118;28;20214;-72
2024/02/19 08:55:55;;;;;;;26.70;5.57;;;;;;;7.73;100.00;102485.97;5044504;28;20190;-72
2024/02/19 08:58:21;;;;;;;19.50;5.63;;;;;;;8.70;100.00;102600.88;5049919;28;20223;-72
2024/02/19 09:00:46;;;;;;;15.07;4.57;;;;;;;8.05;100.00;102492.84;5042536;28;20310;-72
2024/02/19 09:03:12;;;;;;;19.03;4.87;;;;;;;8.88;100.00;102622.41;5053293;28;20624;-72
2024/02/19 09:05:38;;;;;;;15.67;4.57;;;;;;;8.11;100.00;102494.94;5045758;28;20210;-72
2024/02/19 09:08:09;;;;;;;23.77;4.63;;;;;;;8.54;100.00;102576.56;5037337;28;20703;-72
2024/02/19 09:10:34;;;;;;;16.23;4.00;;;;;;;8.14;100.00;102478.63;5041489;28;20182;-72
2024/02/19 09:13:01;;;;;;;20.23;4.37;;;;;;;8.14;100.00;102473.28;5043715;28;20430;-72
2024/02/19 09:15:26;;;;;;;14.47;3.70;;;;;;;8.64;100.00;102525.69;5045149;28;20213;-73
2024/02/19 09:17:52;;;;;;;19.60;3.60;;;;;;;8.17;100.00;102448.09;5047602;28;20480;-73
2024/02/19 09:20:17;;;;;;;15.93;4.20;;;;;;;8.79;100.00;102545.66;5044276;28;20184;-72
2024/02/19 09:22:43;;;;;;;19.40;4.90;;;;;;;8.78;100.00;102552.00;5045487;28;20264;-72
2024/02/19 09:25:09;;;;;;;20.37;3.50;;;;;;;8.62;100.00;102507.13;5043322;28;21218;-72
2024/02/19 09:27:35;;;;;;;20.87;3.60;;;;;;;8.97;100.00;102551.94;5045261;28;20218;-72
2024/02/19 09:30:03;;;;;;;20.27;5.33;;;;;;;9.01;100.00;102537.28;5057658;28;20443;-72
2024/02/19 09:32:29;;;;;;;12.67;3.93;;;;;;;9.26;100.00;102583.13;5036192;28;20493;-72
2024/02/19 09:34:55;;;;;;;18.57;4.67;;;;;;;8.69;100.00;102497.53;5055359;28;20446;-72
2024/02/19 09:37:24;;;;;;;21.87;5.23;;;;;;;8.94;100.00;102552.25;5046835;28;20181;-73
2024/02/19 09:39:52;;;;;;;21.77;6.30;;;;;;;8.54;100.00;102488.28;5055445;28;20184;-72
2024/02/19 09:42:19;;;;;;;23.50;4.83;;;;;;;8.91;100.00;102555.22;5044331;28;20556;-73
2024/02/19 09:44:44;;;;;;;20.70;4.20;;;;;;;9.10;100.00;102589.09;5039726;28;21129;-72
2024/02/19 09:47:14;;;;;;;19.50;4.50;;;;;;;8.37;100.00;102469.28;5046071;28;20430;-72
2024/02/19 09:49:40;;;;;;;19.20;5.17;;;;;;;8.47;100.00;102482.66;5058981;28;20180;-74
2024/02/19 09:52:08;;;;;;;16.37;3.50;;;;;;;8.31;100.00;102474.38;5043227;28;20811;-72
2024/02/19 09:54:34;;;;;;;19.13;3.37;;;;;;;8.89;100.00;102561.69;5058186;28;20233;-72
2024/02/19 09:56:59;;;;;;;17.63;4.30;;;;;;;8.09;100.00;102438.94;5044825;28;20843;-72
2024/02/19 09:59:25;;;;;;;14.70;3.50;;;;;;;8.77;100.00;102563.69;5043637;28;20210;-72
2024/02/19 10:01:50;;;;;;;21.60;4.20;;;;;;;9.14;100.00;102617.25;5042828;28;20658;-72
2024/02/19 10:04:17;;;;;;;17.23;3.70;;;;;;;8.32;100.00;102481.41;5062528;28;20637;-72
2024/02/19 10:06:42;;;;;;;20.37;3.90;;;;;;;8.51;100.00;102508.16;5041744;28;20191;-73
2024/02/19 10:09:08;;;;;;;17.90;3.80;;;;;;;8.25;100.00;102488.31;5044349;28;20846;-72
2024/02/19 10:11:35;;;;;;;15.70;5.13;;;;;;;8.44;100.00;102501.66;5043805;28;20206;-72
2024/02/19 10:14:00;;;;;;;12.13;3.70;;;;;;;7.84;100.00;102402.13;5044438;28;20529;-72
2024/02/19 10:16:26;;;;;;;12.07;4.07;;;;;;;8.35;100.00;102487.31;5043129;28;20516;-73
2024/02/19 10:19:02;;;;;;;18.47;3.60;;;;;;;8.87;100.00;102552.97;5045597;28;20261;-73
2024/02/19 10:21:29;;;;;;;18.37;4.43;;;;;;;8.70;100.00;102541.16;5044370;28;20188;-72
2024/02/19 10:23:55;;;;;;;17.60;4.30;;;;;;;8.70;100.00;102535.81;5045585;28;20503;-72
2024/02/19 10:26:21;;;;;;;16.30;3.47;;;;;;;8.11;100.00;102442.34;5051959;28;20419;-72
2024/02/19 10:28:46;;;;;;;12.40;3.33;;;;;;;8.81;100.00;102573.13;5042619;28;20459;-72
2024/02/19 10:31:13;;;;;;;19.53;4.50;;;;;;;8.22;100.00;102494.81;5057856;28;20291;-73
2024/02/19 10:33:41;;;;;;;17.90;4.60;;;;;;;8.75;100.00;102579.88;5047586;28;20624;-72
2024/02/19 10:36:08;;;;;;;18.10;3.83;;;;;;;9.02;100.00;102611.22;5048063;28;20492;-72
2024/02/19 10:38:33;;;;;;;26.30;5.30;;;;;;;8.23;100.00;102474.25;5040987;28;20603;-72
2024/02/19 10:40:58;;;;;;;23.23;4.70;;;;;;;8.95;100.00;102599.41;5045252;28;20420;-72
2024/02/19 10:43:24;;;;;;;17.57;4.97;;;;;;;9.15;100.00;102608.22;5044195;28;20636;-72
2024/02/19 10:45:52;;;;;;;20.87;5.30;;;;;;;9.25;100.00;102602.81;5047302;28;20767;-72
2024/02/19 10:48:18;;;;;;;16.80;5.80;;;;;;;9.12;100.00;102602.34;5041912;28;20211;-73
2024/02/19 10:50:47;;;;;;;20.97;5.87;;;;;;;9.12;100.00;102608.53;5047412;28;20418;-73
2024/02/19 10:53:13;;;;;;;15.37;4.90;;;;;;;8.41;100.00;102485.91;5048355;28;20223;-72
2024/02/19 10:55:39;;;;;;;20.63;5.20;;;;;;;9.32;100.00;102629.88;5045147;28;20899;-73
2024/02/19 10:58:14;;;;;;;20.13;5.70;;;;;;;8.57;100.00;102490.69;5041677;28;20206;-72
2024/02/19 11:00:42;;;;;;;14.10;5.47;;;;;;;9.18;100.00;102581.16;5041876;28;20488;-72
2024/02/19 11:03:09;;;;;;;23.40;6.90;;;;;;;8.65;100.00;102498.81;5047571;28;20491;-73
2024/02/19 11:05:45;;;;;;;19.60;6.57;;;;;;;9.37;100.00;102632.94;5035984;28;20443;-73
2024/02/19 11:08:22;;;;;;;15.47;6.33;;;;;;;9.28;100.00;102607.88;5039940;28;20488;-73
2024/02/19 11:10:48;;;;;;;21.20;7.43;;;;;;;8.47;100.00;102477.31;5041721;28;20510;-72
2024/02/19 11:13:18;;;;;;;28.13;7.47;;;;;;;9.40;100.00;102613.91;5041063;28;21052;-72
2024/02/19 11:15:44;;;;;;;20.33;6.73;;;;;;;9.30;100.00;102605.09;5058215;28;20450;-72